createdAt,value
2019-02-07T00:00:10.177Z,7.60
2019-02-07T00:03:13.441Z,7.97
2019-02-07T00:06:14.966Z,7.47
2019-02-07T00:09:16.749Z,7.13
2019-02-07T00:12:18.637Z,7.20
2019-02-07T00:15:20.470Z,6.90
2019-02-07T00:18:22.011Z,7.20
2019-02-07T00:21:23.483Z,7.27
2019-02-07T00:24:25.038Z,6.40
2019-02-07T00:27:26.507Z,6.30
2019-02-07T00:30:28.022Z,6.67
2019-02-07T00:33:29.451Z,7.07
2019-02-07T00:36:30.911Z,6.97
2019-02-07T00:39:32.298Z,7.10
2019-02-07T00:42:33.732Z,7.00
2019-02-07T00:45:35.736Z,6.77
2019-02-07T00:48:37.955Z,6.97
2019-02-07T00:51:39.591Z,6.70
2019-02-07T00:54:40.972Z,6.97
2019-02-07T00:57:42.438Z,7.07
2019-02-07T01:00:43.925Z,7.73
2019-02-07T01:03:45.345Z,6.67
2019-02-07T01:06:46.722Z,6.73
2019-02-07T01:09:48.602Z,6.33
2019-02-07T01:12:50.232Z,6.87
2019-02-07T01:15:51.708Z,6.73
2019-02-07T01:18:53.365Z,6.70
2019-02-07T01:21:54.746Z,6.67
2019-02-07T01:24:57.204Z,5.63
2019-02-07T01:27:58.634Z,6.67
2019-02-07T01:31:00.012Z,7.23
2019-02-07T01:34:01.566Z,6.43
2019-02-07T01:37:02.922Z,6.80
2019-02-07T01:40:05.474Z,6.17
2019-02-07T01:43:08.744Z,6.97
2019-02-07T01:46:10.168Z,6.80
2019-02-07T01:49:11.673Z,6.80
2019-02-07T01:52:13.427Z,6.30
2019-02-07T01:55:15.696Z,6.80
2019-02-07T01:58:17.253Z,6.00
2019-02-07T02:01:18.733Z,6.20
2019-02-07T02:04:20.176Z,6.90
2019-02-07T02:07:21.713Z,7.03
2019-02-07T02:10:26.007Z,6.53
2019-02-07T02:13:27.379Z,6.83
2019-02-07T02:16:28.765Z,6.10
2019-02-07T02:19:30.311Z,6.60
2019-02-07T02:22:31.759Z,6.10
2019-02-07T02:25:33.706Z,6.03
2019-02-07T02:28:35.172Z,6.50
2019-02-07T02:31:36.607Z,6.10
2019-02-07T02:34:38.097Z,6.27
2019-02-07T02:37:39.524Z,6.03
2019-02-07T02:40:40.942Z,6.67
2019-02-07T02:43:42.491Z,6.67
2019-02-07T02:46:43.885Z,6.50
2019-02-07T02:49:45.774Z,6.27
2019-02-07T02:52:47.798Z,5.73
2019-02-07T02:55:50.248Z,6.73
2019-02-07T02:58:52.182Z,6.67
2019-02-07T03:02:02.244Z,6.47
2019-02-07T03:05:22.678Z,6.73
2019-02-07T03:08:40.408Z,6.07
2019-02-07T03:11:59.587Z,5.90
2019-02-07T03:15:28.914Z,6.47
2019-02-07T03:18:58.590Z,5.87
2019-02-07T03:22:21.748Z,6.13
2019-02-07T03:25:41.025Z,6.30
2019-02-07T03:29:04.775Z,6.40
2019-02-07T03:32:31.828Z,6.13
2019-02-07T03:36:02.915Z,6.10
2019-02-07T03:39:25.846Z,6.57
2019-02-07T03:42:46.739Z,6.53
2019-02-07T03:46:03.095Z,5.70
2019-02-07T03:49:15.172Z,6.43
2019-02-07T03:52:51.027Z,5.77
2019-02-07T03:56:10.447Z,5.60
2019-02-07T03:59:33.929Z,5.67
2019-02-07T04:02:53.291Z,6.07
2019-02-07T04:06:18.331Z,5.57
2019-02-07T04:09:39.220Z,5.97
2019-02-07T04:13:05.512Z,5.80
2019-02-07T04:16:15.981Z,5.73
2019-02-07T04:19:45.489Z,5.50
2019-02-07T04:23:02.471Z,5.87
2019-02-07T04:26:38.737Z,5.90
2019-02-07T04:30:14.307Z,6.37
2019-02-07T04:33:33.411Z,6.80
2019-02-07T04:36:41.608Z,6.20
2019-02-07T04:40:17.069Z,5.57
2019-02-07T04:43:38.300Z,5.67
2019-02-07T04:46:58.787Z,5.07
2019-02-07T04:50:27.984Z,5.67
2019-02-07T04:53:57.386Z,5.67
2019-02-07T04:57:24.068Z,5.53
2019-02-07T05:00:43.035Z,5.70
2019-02-07T05:04:12.220Z,5.90
2019-02-07T05:07:31.606Z,5.00
2019-02-07T05:10:51.747Z,5.53
2019-02-07T05:14:13.166Z,5.67
2019-02-07T05:17:27.725Z,5.27
2019-02-07T05:21:00.309Z,4.90
2019-02-07T05:24:36.303Z,5.70
2019-02-07T05:27:56.655Z,5.47
2019-02-07T05:31:20.089Z,5.70
2019-02-07T05:34:39.424Z,4.93
2019-02-07T05:38:05.628Z,5.20
2019-02-07T05:41:22.785Z,5.07
2019-02-07T05:44:52.293Z,5.13
2019-02-07T05:48:11.423Z,5.57
2019-02-07T05:51:34.580Z,5.03
2019-02-07T05:55:10.766Z,5.23
2019-02-07T05:58:29.684Z,5.53
2019-02-07T06:01:47.797Z,5.33
2019-02-07T06:05:06.917Z,4.77
2019-02-07T06:08:25.761Z,5.10
2019-02-07T06:11:48.944Z,5.33
2019-02-07T06:15:10.371Z,5.20
2019-02-07T06:18:29.949Z,5.10
2019-02-07T06:21:49.775Z,5.03
2019-02-07T06:25:16.136Z,4.63
2019-02-07T06:28:40.676Z,5.10
2019-02-07T06:32:04.208Z,5.23
2019-02-07T06:35:17.844Z,5.20
2019-02-07T06:38:36.699Z,5.77
2019-02-07T06:41:56.284Z,5.50
2019-02-07T06:45:15.311Z,5.00
2019-02-07T06:48:48.023Z,5.77
2019-02-07T06:52:07.207Z,5.03
2019-02-07T06:55:23.809Z,5.17
2019-02-07T06:58:43.293Z,5.23
2019-02-07T07:02:03.671Z,5.93
2019-02-07T07:05:28.068Z,5.40
2019-02-07T07:08:57.278Z,5.20
2019-02-07T07:12:06.624Z,4.70
2019-02-07T07:15:47.125Z,5.10
2019-02-07T07:19:06.255Z,5.50
2019-02-07T07:22:26.628Z,5.87
2019-02-07T07:25:55.962Z,4.80
2019-02-07T07:29:22.608Z,5.07
2019-02-07T07:32:50.865Z,4.50
2019-02-07T07:36:14.215Z,5.33
2019-02-07T07:39:28.859Z,5.00
2019-02-07T07:42:48.115Z,4.80
2019-02-07T07:46:08.637Z,5.23
2019-02-07T07:49:39.854Z,5.30
2019-02-07T07:53:00.612Z,5.00
2019-02-07T07:56:19.596Z,4.90
2019-02-07T07:59:48.045Z,5.03
2019-02-07T08:03:16.645Z,5.07
2019-02-07T08:06:37.075Z,5.13
2019-02-07T08:09:57.498Z,4.83
2019-02-07T08:13:19.191Z,5.43
2019-02-07T08:16:38.617Z,5.00
2019-02-07T08:20:03.551Z,4.80
2019-02-07T08:23:27.518Z,5.20
2019-02-07T08:26:57.275Z,4.73
2019-02-07T08:30:16.711Z,5.20
2019-02-07T08:33:35.991Z,4.67
2019-02-07T08:37:05.850Z,4.60
2019-02-07T08:40:29.116Z,4.93
2019-02-07T08:43:47.911Z,5.33
2019-02-07T08:47:11.191Z,4.73
2019-02-07T08:50:36.125Z,4.77
2019-02-07T08:54:09.062Z,4.90
2019-02-07T08:57:25.907Z,4.93
2019-02-07T09:00:37.715Z,4.80
2019-02-07T09:03:58.149Z,4.83
2019-02-07T09:07:20.493Z,4.93
2019-02-07T09:10:53.459Z,5.50
2019-02-07T09:14:12.614Z,5.17
2019-02-07T09:17:21.823Z,4.83
2019-02-07T09:20:41.097Z,5.70
2019-02-07T09:24:07.412Z,5.20
2019-02-07T09:27:26.372Z,5.67
2019-02-07T09:30:45.780Z,5.30
2019-02-07T09:34:24.678Z,4.67
2019-02-07T09:37:51.211Z,5.70
2019-02-07T09:41:11.861Z,5.43
2019-02-07T09:44:35.253Z,5.57
2019-02-07T09:47:54.272Z,6.27
2019-02-07T09:51:07.942Z,6.03
2019-02-07T09:54:27.235Z,5.00
2019-02-07T09:57:47.813Z,5.00
2019-02-07T10:00:57.477Z,5.17
2019-02-07T10:04:19.487Z,5.13
2019-02-07T10:07:42.872Z,5.23
2019-02-07T10:10:56.955Z,5.10
2019-02-07T10:14:16.778Z,4.90
2019-02-07T10:17:36.063Z,6.00
2019-02-07T10:20:56.534Z,5.07
2019-02-07T10:24:16.401Z,5.73
2019-02-07T10:27:42.951Z,5.60
2019-02-07T10:30:58.949Z,5.00
2019-02-07T10:34:11.944Z,5.07
2019-02-07T10:37:50.732Z,5.10
2019-02-07T10:41:13.994Z,4.77
2019-02-07T10:44:35.093Z,5.43
2019-02-07T10:47:53.983Z,5.33
2019-02-07T10:51:15.568Z,5.47
2019-02-07T10:54:51.151Z,5.00
2019-02-07T10:58:21.118Z,5.23
2019-02-07T11:01:40.326Z,5.90
2019-02-07T11:05:01.033Z,5.80
2019-02-07T11:08:21.899Z,5.30
2019-02-07T11:11:43.883Z,4.97
2019-02-07T11:14:59.693Z,5.90
2019-02-07T11:18:23.249Z,5.67
2019-02-07T11:21:43.810Z,5.40
2019-02-07T11:25:25.109Z,5.47
2019-02-07T11:29:04.121Z,5.40
2019-02-07T11:32:24.825Z,5.77
2019-02-07T11:35:48.210Z,5.63
2019-02-07T11:39:11.709Z,5.30
2019-02-07T11:42:31.200Z,5.37
2019-02-07T11:45:44.113Z,5.70
2019-02-07T11:49:06.841Z,5.10
2019-02-07T11:52:29.674Z,5.67
2019-02-07T11:55:41.469Z,5.13
2019-02-07T11:59:17.040Z,5.63
2019-02-07T12:02:38.139Z,5.47
2019-02-07T12:05:47.525Z,4.93
2019-02-07T12:09:08.705Z,5.50
2019-02-07T12:12:29.305Z,4.63
2019-02-07T12:15:50.141Z,5.57
2019-02-07T12:19:17.728Z,4.60
2019-02-07T12:22:46.746Z,5.13
2019-02-07T12:26:13.465Z,5.10
2019-02-07T12:29:37.659Z,4.57
2019-02-07T12:33:13.797Z,4.53
2019-02-07T12:36:33.358Z,4.97
2019-02-07T12:39:52.959Z,4.90
2019-02-07T12:43:21.487Z,4.30
2019-02-07T12:46:42.327Z,4.87
2019-02-07T12:50:08.235Z,4.63
2019-02-07T12:53:27.323Z,4.50
2019-02-07T12:56:46.093Z,4.40
2019-02-07T13:00:08.878Z,4.17
2019-02-07T13:03:38.006Z,4.57
2019-02-07T13:07:18.628Z,4.00
2019-02-07T13:10:45.669Z,4.30
2019-02-07T13:14:05.662Z,4.40
2019-02-07T13:17:24.827Z,4.53
2019-02-07T13:20:47.904Z,4.60
2019-02-07T13:24:23.787Z,4.17
2019-02-07T13:27:41.261Z,3.70
2019-02-07T13:31:04.976Z,4.03
2019-02-07T13:34:24.642Z,4.60
2019-02-07T13:37:57.303Z,4.40
2019-02-07T13:41:20.481Z,4.03
2019-02-07T13:44:43.852Z,3.73
2019-02-07T13:47:54.270Z,3.70
2019-02-07T13:51:29.739Z,4.43
2019-02-07T13:54:49.725Z,4.67
2019-02-07T13:58:16.174Z,4.17
2019-02-07T14:01:48.699Z,5.37
2019-02-07T14:05:15.002Z,4.10
2019-02-07T14:08:47.570Z,3.83
2019-02-07T14:12:06.685Z,3.70
2019-02-07T14:15:28.413Z,4.17
2019-02-07T14:18:55.047Z,3.70
2019-02-07T14:22:18.306Z,3.97
2019-02-07T14:25:45.833Z,3.73
2019-02-07T14:29:15.468Z,3.50
2019-02-07T14:32:38.909Z,4.07
2019-02-07T14:36:11.404Z,3.57
2019-02-07T14:39:34.994Z,3.43
2019-02-07T14:43:04.677Z,3.63
2019-02-07T14:46:37.411Z,4.20
2019-02-07T14:49:38.863Z,3.53
2019-02-07T14:52:40.257Z,4.00
2019-02-07T14:55:41.684Z,4.30
2019-02-07T14:58:43.171Z,3.60
2019-02-07T15:01:44.591Z,4.00
2019-02-07T15:04:46.046Z,3.60
2019-02-07T15:07:47.463Z,3.50
2019-02-07T15:10:49.409Z,3.97
2019-02-07T15:13:50.831Z,3.73
2019-02-07T15:16:52.321Z,3.77
2019-02-07T15:19:53.924Z,4.23
2019-02-07T15:22:55.331Z,3.97
2019-02-07T15:25:56.883Z,4.47
2019-02-07T15:28:58.398Z,3.33
2019-02-07T15:32:00.075Z,3.90
2019-02-07T15:35:01.971Z,3.93
2019-02-07T15:38:03.544Z,3.63
2019-02-07T15:41:06.898Z,4.03
2019-02-07T15:44:08.648Z,3.77
2019-02-07T15:47:10.397Z,4.20
2019-02-07T15:50:21.413Z,3.77
2019-02-07T15:53:22.984Z,3.47
2019-02-07T15:56:24.496Z,3.30
2019-02-07T15:59:38.124Z,3.10
2019-02-07T16:02:43.698Z,3.80
2019-02-07T16:05:48.347Z,3.70
2019-02-07T16:08:50.349Z,3.90
2019-02-07T16:11:52.030Z,3.87
2019-02-07T16:14:54.560Z,3.70
2019-02-07T16:17:56.576Z,3.40
2019-02-07T16:20:58.330Z,3.30
2019-02-07T16:24:00.117Z,3.70
2019-02-07T16:27:01.647Z,3.80
2019-02-07T16:30:03.197Z,4.00
2019-02-07T16:33:06.338Z,4.17
2019-02-07T16:36:07.915Z,3.77
2019-02-07T16:39:10.977Z,3.30
2019-02-07T16:42:12.630Z,3.40
2019-02-07T16:45:16.744Z,3.53
2019-02-07T16:48:18.373Z,3.70
2019-02-07T16:51:19.882Z,3.50
2019-02-07T16:54:21.601Z,3.43
2019-02-07T16:57:23.116Z,3.67
2019-02-07T17:00:26.788Z,3.43
2019-02-07T17:03:28.636Z,3.77
2019-02-07T17:06:30.134Z,3.77
2019-02-07T17:09:36.794Z,3.30
2019-02-07T17:12:38.406Z,3.90
2019-02-07T17:15:39.995Z,4.10
2019-02-07T17:18:41.477Z,3.87
2019-02-07T17:21:43.343Z,3.80
2019-02-07T17:24:45.171Z,3.57
2019-02-07T17:27:46.741Z,3.50
2019-02-07T17:30:48.342Z,4.10
2019-02-07T17:33:50.159Z,3.73
2019-02-07T17:36:51.863Z,3.90
2019-02-07T17:39:56.599Z,3.37
2019-02-07T17:42:58.262Z,3.50
2019-02-07T17:46:00.596Z,3.67
2019-02-07T17:49:03.268Z,3.60
2019-02-07T17:52:04.774Z,3.63
2019-02-07T17:55:10.177Z,4.30
2019-02-07T17:58:12.092Z,4.47
2019-02-07T18:01:13.701Z,3.87
2019-02-07T18:04:15.240Z,3.40
2019-02-07T18:07:16.822Z,3.80
2019-02-07T18:10:19.172Z,3.57
2019-02-07T18:13:21.038Z,3.77
2019-02-07T18:16:22.657Z,3.97
2019-02-07T18:19:24.523Z,4.03
2019-02-07T18:22:26.298Z,3.63
2019-02-07T18:25:27.833Z,4.43
2019-02-07T18:28:29.449Z,4.10
2019-02-07T18:31:31.002Z,4.17
2019-02-07T18:34:32.523Z,4.37
2019-02-07T18:37:34.303Z,3.93
2019-02-07T18:40:35.914Z,3.90
2019-02-07T18:43:37.669Z,4.07
2019-02-07T18:46:39.477Z,4.47
2019-02-07T18:49:41.008Z,4.00
2019-02-07T18:52:42.650Z,4.00
2019-02-07T18:55:44.196Z,3.60
2019-02-07T18:58:46.222Z,3.90
2019-02-07T19:01:48.164Z,3.97
2019-02-07T19:04:50.168Z,3.63
2019-02-07T19:07:51.755Z,4.67
2019-02-07T19:10:53.430Z,3.70
2019-02-07T19:13:55.143Z,4.03
2019-02-07T19:16:57.168Z,4.20
2019-02-07T19:19:58.879Z,4.20
2019-02-07T19:23:00.415Z,4.27
2019-02-07T19:26:02.229Z,3.70
2019-02-07T19:29:04.321Z,4.00
2019-02-07T19:32:05.857Z,3.57
2019-02-07T19:35:08.609Z,3.87
2019-02-07T19:38:10.210Z,3.90
2019-02-07T19:41:12.169Z,3.90
2019-02-07T19:44:13.907Z,3.97
2019-02-07T19:47:15.471Z,3.90
2019-02-07T19:50:22.873Z,4.77
2019-02-07T19:53:24.530Z,4.13
2019-02-07T19:56:26.455Z,3.77
2019-02-07T19:59:28.020Z,3.87
2019-02-07T20:02:29.632Z,3.80
2019-02-07T20:05:31.686Z,3.70
2019-02-07T20:08:33.357Z,3.80
2019-02-07T20:11:35.037Z,3.60
2019-02-07T20:14:36.831Z,3.70
2019-02-07T20:17:38.344Z,4.10
2019-02-07T20:20:40.643Z,3.70
2019-02-07T20:23:42.293Z,3.83
2019-02-07T20:26:43.837Z,3.83
2019-02-07T20:29:45.396Z,4.20
2019-02-07T20:32:47.262Z,3.90
2019-02-07T20:35:48.881Z,4.20
2019-02-07T20:38:50.938Z,4.40
2019-02-07T20:41:52.707Z,3.53
2019-02-07T20:44:54.796Z,4.07
2019-02-07T20:47:56.529Z,3.53
2019-02-07T20:50:58.068Z,3.90
2019-02-07T20:54:00.186Z,3.97
2019-02-07T20:57:01.715Z,3.70
2019-02-07T21:00:03.461Z,4.17
2019-02-07T21:03:05.946Z,4.40
2019-02-07T21:06:07.652Z,3.27
2019-02-07T21:09:10.903Z,3.70
2019-02-07T21:12:12.606Z,3.57
2019-02-07T21:15:18.812Z,4.03
2019-02-07T21:18:20.123Z,3.83
2019-02-07T21:21:21.679Z,4.03
2019-02-07T21:24:23.220Z,4.10
2019-02-07T21:27:24.796Z,4.00
2019-02-07T21:30:29.558Z,4.00
2019-02-07T21:33:31.108Z,3.77
2019-02-07T21:36:32.727Z,3.77
2019-02-07T21:39:34.246Z,3.67
2019-02-07T21:42:36.295Z,3.43
2019-02-07T21:45:37.716Z,3.77
2019-02-07T21:48:39.297Z,3.70
2019-02-07T21:51:40.849Z,3.40
2019-02-07T21:54:42.472Z,3.70
2019-02-07T21:57:44.194Z,3.90
2019-02-07T22:00:46.945Z,3.20
2019-02-07T22:03:48.617Z,3.70
2019-02-07T22:06:50.634Z,3.70
2019-02-07T22:09:52.262Z,3.40
2019-02-07T22:12:53.694Z,3.70
2019-02-07T22:15:55.605Z,3.37
2019-02-07T22:18:57.106Z,3.50
2019-02-07T22:21:59.771Z,3.50
2019-02-07T22:25:01.317Z,3.60
2019-02-07T22:28:03.049Z,3.50
2019-02-07T22:31:04.694Z,3.40
2019-02-07T22:34:06.139Z,2.90
2019-02-07T22:37:07.714Z,3.70
2019-02-07T22:40:13.592Z,3.13
2019-02-07T22:43:15.066Z,3.37
2019-02-07T22:46:16.763Z,3.63
2019-02-07T22:49:18.236Z,3.30
2019-02-07T22:52:19.707Z,2.90
2019-02-07T22:55:21.391Z,3.53
2019-02-07T22:58:23.039Z,3.47
2019-02-07T23:01:48.499Z,3.27
2019-02-07T23:04:50.148Z,2.93
2019-02-07T23:07:51.736Z,3.53
2019-02-07T23:10:53.275Z,2.90
2019-02-07T23:13:54.844Z,3.10
2019-02-07T23:16:56.254Z,2.70
2019-02-07T23:19:57.698Z,3.30
2019-02-07T23:23:05.099Z,2.87
2019-02-07T23:26:02.449Z,2.73
2019-02-07T23:29:03.985Z,3.00
2019-02-07T23:32:06.077Z,2.87
2019-02-07T23:35:07.743Z,3.07
2019-02-07T23:38:09.410Z,2.83
2019-02-07T23:41:13.416Z,2.97
2019-02-07T23:44:14.868Z,3.67
2019-02-07T23:47:16.206Z,3.37
2019-02-07T23:50:18.762Z,3.03
2019-02-07T23:53:20.238Z,3.20
2019-02-07T23:56:22.023Z,3.13
2019-02-07T23:59:23.488Z,3.10
